createdAt,value
2023-05-02T00:00:53.355Z,419.00
2023-05-02T00:01:53.423Z,420.00
2023-05-02T00:02:53.722Z,419.00
2023-05-02T00:03:53.544Z,420.00
2023-05-02T00:04:53.545Z,420.00
2023-05-02T00:05:53.749Z,419.00
2023-05-02T00:06:53.684Z,418.00
2023-05-02T00:07:53.639Z,418.00
2023-05-02T00:08:53.703Z,421.00
2023-05-02T00:09:53.765Z,421.00
2023-05-02T00:10:54.245Z,421.00
2023-05-02T00:11:53.867Z,423.00
2023-05-02T00:12:54.003Z,424.00
2023-05-02T00:13:53.942Z,424.00
2023-05-02T00:14:54.015Z,423.00
2023-05-02T00:15:54.236Z,423.00
2023-05-02T00:16:54.129Z,423.00
2023-05-02T00:17:54.164Z,420.00
2023-05-02T00:18:54.176Z,420.00
2023-05-02T00:19:54.221Z,421.00
2023-05-02T00:20:54.753Z,421.00
2023-05-02T00:21:54.305Z,421.00
2023-05-02T00:22:54.357Z,420.00
2023-05-02T00:23:54.407Z,420.00
2023-05-02T00:24:54.430Z,419.00
2023-05-02T00:25:54.741Z,416.00
2023-05-02T00:26:54.531Z,418.00
2023-05-02T00:27:54.630Z,420.00
2023-05-02T00:28:54.650Z,421.00
2023-05-02T00:29:54.672Z,420.00
2023-05-02T00:30:54.777Z,418.00
2023-05-02T00:31:54.774Z,419.00
2023-05-02T00:32:54.835Z,421.00
2023-05-02T00:33:54.863Z,422.00
2023-05-02T00:34:54.906Z,424.00
2023-05-02T00:35:55.267Z,424.00
2023-05-02T00:36:55.010Z,425.00
2023-05-02T00:37:55.082Z,426.00
2023-05-02T00:38:55.071Z,427.00
2023-05-02T00:39:55.121Z,424.00
2023-05-02T00:40:55.264Z,423.00
2023-05-02T00:41:55.164Z,423.00
2023-05-02T00:42:55.178Z,421.00
2023-05-02T00:43:55.200Z,421.00
2023-05-02T00:44:55.244Z,419.00
2023-05-02T00:45:55.775Z,418.00
2023-05-02T00:46:55.423Z,419.00
2023-05-02T00:47:55.401Z,419.00
2023-05-02T00:48:55.440Z,418.00
2023-05-02T00:49:55.496Z,420.00
2023-05-02T00:50:55.741Z,420.00
2023-05-02T00:51:56.257Z,418.00
2023-05-02T00:52:55.609Z,418.00
2023-05-02T00:53:55.653Z,417.00
2023-05-02T00:54:55.708Z,415.00
2023-05-02T00:55:56.246Z,416.00
2023-05-02T00:56:55.813Z,416.00
2023-05-02T00:57:55.865Z,417.00
2023-05-02T00:58:55.905Z,417.00
2023-05-02T00:59:55.963Z,417.00
2023-05-02T01:00:55.995Z,419.00
2023-05-02T01:01:56.091Z,418.00
2023-05-02T01:02:56.148Z,415.00
2023-05-02T01:03:56.255Z,415.00
2023-05-02T01:04:56.169Z,417.00
2023-05-02T01:05:56.245Z,417.00
2023-05-02T01:06:56.266Z,418.00
2023-05-02T01:07:56.335Z,418.00
2023-05-02T01:08:56.372Z,417.00
2023-05-02T01:09:56.484Z,417.00
2023-05-02T01:10:56.758Z,419.00
2023-05-02T01:11:56.502Z,420.00
2023-05-02T01:12:56.539Z,420.00
2023-05-02T01:13:56.607Z,419.00
2023-05-02T01:14:56.634Z,417.00
2023-05-02T01:15:56.801Z,417.00
2023-05-02T01:16:56.726Z,416.00
2023-05-02T01:17:56.878Z,418.00
2023-05-02T01:18:56.822Z,418.00
2023-05-02T01:19:56.936Z,416.00
2023-05-02T01:20:57.291Z,412.00
2023-05-02T01:21:56.946Z,412.00
2023-05-02T01:22:57.022Z,413.00
2023-05-02T01:23:57.055Z,411.00
2023-05-02T01:24:57.113Z,413.00
2023-05-02T01:25:57.277Z,415.00
2023-05-02T01:26:57.212Z,413.00
2023-05-02T01:27:57.249Z,413.00
2023-05-02T01:28:57.272Z,413.00
2023-05-02T01:29:57.404Z,415.00
2023-05-02T01:30:57.830Z,414.00
2023-05-02T01:31:57.507Z,416.00
2023-05-02T01:32:57.469Z,417.00
2023-05-02T01:33:57.494Z,417.00
2023-05-02T01:34:57.557Z,419.00
2023-05-02T01:35:57.599Z,421.00
2023-05-02T01:36:57.783Z,423.00
2023-05-02T01:37:57.707Z,424.00
2023-05-02T01:38:57.733Z,425.00
2023-05-02T01:39:57.896Z,426.00
2023-05-02T01:40:57.841Z,427.00
2023-05-02T01:41:57.905Z,425.00
2023-05-02T01:42:57.932Z,425.00
2023-05-02T01:43:57.978Z,425.00
2023-05-02T01:44:58.068Z,425.00
2023-05-02T01:45:58.079Z,427.00
2023-05-02T01:46:58.183Z,427.00
2023-05-02T01:47:58.240Z,425.00
2023-05-02T01:48:58.230Z,423.00
2023-05-02T01:49:58.499Z,423.00
2023-05-02T01:50:58.375Z,422.00
2023-05-02T01:51:58.356Z,424.00
2023-05-02T01:52:58.410Z,425.00
2023-05-02T01:53:58.458Z,426.00
2023-05-02T01:54:58.504Z,428.00
2023-05-02T01:55:58.789Z,426.00
2023-05-02T01:56:58.582Z,427.00
2023-05-02T01:57:58.624Z,425.00
2023-05-02T01:58:58.777Z,426.00
2023-05-02T01:59:58.897Z,425.00
2023-05-02T02:00:58.877Z,426.00
2023-05-02T02:01:58.865Z,425.00
2023-05-02T02:02:58.906Z,426.00
2023-05-02T02:03:58.964Z,426.00
2023-05-02T02:04:58.985Z,427.00
2023-05-02T02:05:59.379Z,428.00
2023-05-02T02:06:59.101Z,428.00
2023-05-02T02:07:59.116Z,427.00
2023-05-02T02:08:59.167Z,426.00
2023-05-02T02:09:59.465Z,424.00
2023-05-02T02:10:59.268Z,422.00
2023-05-02T02:11:59.291Z,424.00
2023-05-02T02:12:59.389Z,423.00
2023-05-02T02:13:59.424Z,422.00
2023-05-02T02:14:59.431Z,422.00
2023-05-02T02:15:59.494Z,424.00
2023-05-02T02:16:59.931Z,423.00
2023-05-02T02:17:59.631Z,425.00
2023-05-02T02:18:59.644Z,424.00
2023-05-02T02:20:00.048Z,424.00
2023-05-02T02:20:59.785Z,425.00
2023-05-02T02:21:59.775Z,425.00
2023-05-02T02:22:59.860Z,427.00
2023-05-02T02:23:59.898Z,426.00
2023-05-02T02:24:59.963Z,426.00
2023-05-02T02:25:59.990Z,425.00
2023-05-02T02:27:00.052Z,426.00
2023-05-02T02:28:00.138Z,427.00
2023-05-02T02:29:00.139Z,426.00
2023-05-02T02:30:00.485Z,425.00
2023-05-02T02:31:00.256Z,424.00
2023-05-02T02:32:00.298Z,421.00
2023-05-02T02:33:00.398Z,422.00
2023-05-02T02:34:00.398Z,422.00
2023-05-02T02:35:00.413Z,422.00
2023-05-02T02:36:00.461Z,422.00
2023-05-02T02:37:00.764Z,421.00
2023-05-02T02:38:00.557Z,421.00
2023-05-02T02:39:00.582Z,419.00
2023-05-02T02:40:01.073Z,419.00
2023-05-02T02:41:00.655Z,419.00
2023-05-02T02:42:00.737Z,420.00
2023-05-02T02:43:00.728Z,421.00
2023-05-02T02:44:00.753Z,421.00
2023-05-02T02:45:00.826Z,422.00
2023-05-02T02:46:00.922Z,422.00
2023-05-02T02:47:00.927Z,422.00
2023-05-02T02:48:00.985Z,423.00
2023-05-02T02:49:01.029Z,423.00
2023-05-02T02:50:01.316Z,423.00
2023-05-02T02:51:01.111Z,426.00
2023-05-02T02:52:01.144Z,425.00
2023-05-02T02:53:01.199Z,427.00
2023-05-02T02:54:01.246Z,429.00
2023-05-02T02:55:01.274Z,430.00
2023-05-02T02:56:01.328Z,429.00
2023-05-02T02:57:01.373Z,427.00
2023-05-02T02:58:01.399Z,425.00
2023-05-02T02:59:01.448Z,425.00
2023-05-02T03:00:01.710Z,425.00
2023-05-02T03:01:01.505Z,426.00
2023-05-02T03:02:01.697Z,425.00
2023-05-02T03:03:01.829Z,423.00
2023-05-02T03:04:01.707Z,424.00
2023-05-02T03:05:01.674Z,425.00
2023-05-02T03:06:01.735Z,425.00
2023-05-02T03:07:01.788Z,425.00
2023-05-02T03:08:01.851Z,425.00
2023-05-02T03:09:01.895Z,424.00
2023-05-02T03:10:02.160Z,426.00
2023-05-02T03:11:01.971Z,428.00
2023-05-02T03:12:02.011Z,427.00
2023-05-02T03:13:02.045Z,425.00
2023-05-02T03:14:02.081Z,425.00
2023-05-02T03:15:02.170Z,424.00
2023-05-02T03:16:02.288Z,426.00
2023-05-02T03:17:02.234Z,425.00
2023-05-02T03:18:02.295Z,423.00
2023-05-02T03:19:02.308Z,423.00
2023-05-02T03:20:02.501Z,421.00
2023-05-02T03:21:02.469Z,422.00
2023-05-02T03:22:02.782Z,420.00
2023-05-02T03:23:02.516Z,420.00
2023-05-02T03:24:02.526Z,420.00
2023-05-02T03:25:02.592Z,420.00
2023-05-02T03:26:02.624Z,419.00
2023-05-02T03:27:02.674Z,420.00
2023-05-02T03:28:02.724Z,420.00
2023-05-02T03:29:02.776Z,423.00
2023-05-02T03:30:02.975Z,421.00
2023-05-02T03:31:02.866Z,423.00
2023-05-02T03:32:03.068Z,425.00
2023-05-02T03:33:02.991Z,426.00
2023-05-02T03:34:03.001Z,428.00
2023-05-02T03:35:03.038Z,429.00
2023-05-02T03:36:03.128Z,429.00
2023-05-02T03:37:03.171Z,428.00
2023-05-02T03:38:03.207Z,427.00
2023-05-02T03:39:03.250Z,428.00
2023-05-02T03:40:03.403Z,427.00
2023-05-02T03:41:03.362Z,426.00
2023-05-02T03:42:03.791Z,425.00
2023-05-02T03:43:03.449Z,423.00
2023-05-02T03:44:03.485Z,421.00
2023-05-02T03:45:03.540Z,421.00
2023-05-02T03:46:03.613Z,423.00
2023-05-02T03:47:03.722Z,422.00
2023-05-02T03:48:03.711Z,421.00
2023-05-02T03:49:03.700Z,420.00
2023-05-02T03:50:03.781Z,420.00
2023-05-02T03:51:03.812Z,420.00
2023-05-02T03:52:03.881Z,420.00
2023-05-02T03:53:03.928Z,420.00
2023-05-02T03:54:03.921Z,420.00
2023-05-02T03:55:03.992Z,417.00
2023-05-02T03:56:04.011Z,416.00
2023-05-02T03:57:04.053Z,415.00
2023-05-02T03:58:04.125Z,415.00
2023-05-02T03:59:04.175Z,416.00
2023-05-02T04:00:04.235Z,418.00
2023-05-02T04:01:04.258Z,418.00
2023-05-02T04:02:04.303Z,418.00
2023-05-02T04:03:04.352Z,419.00
2023-05-02T04:04:04.424Z,421.00
2023-05-02T04:05:04.425Z,420.00
2023-05-02T04:06:04.467Z,419.00
2023-05-02T04:07:04.540Z,419.00
2023-05-02T04:08:04.547Z,421.00
2023-05-02T04:09:04.624Z,423.00
2023-05-02T04:10:04.702Z,423.00
2023-05-02T04:11:04.716Z,425.00
2023-05-02T04:12:04.749Z,427.00
2023-05-02T04:13:04.776Z,429.00
2023-05-02T04:14:04.832Z,429.00
2023-05-02T04:15:04.875Z,426.00
2023-05-02T04:16:04.904Z,425.00
2023-05-02T04:17:05.397Z,426.00
2023-05-02T04:18:05.024Z,426.00
2023-05-02T04:19:05.046Z,427.00
2023-05-02T04:20:05.812Z,426.00
2023-05-02T04:21:05.135Z,427.00
2023-05-02T04:22:05.191Z,426.00
2023-05-02T04:23:05.258Z,426.00
2023-05-02T04:24:05.285Z,427.00
2023-05-02T04:25:05.306Z,428.00
2023-05-02T04:26:05.357Z,427.00
2023-05-02T04:27:05.828Z,427.00
2023-05-02T04:28:05.442Z,427.00
2023-05-02T04:29:05.761Z,427.00
2023-05-02T04:30:05.508Z,425.00
2023-05-02T04:31:05.617Z,424.00
2023-05-02T04:32:05.633Z,423.00
2023-05-02T04:33:05.702Z,424.00
2023-05-02T04:34:05.700Z,423.00
2023-05-02T04:35:05.738Z,424.00
2023-05-02T04:36:05.759Z,424.00
2023-05-02T04:37:05.846Z,424.00
2023-05-02T04:38:05.849Z,423.00
2023-05-02T04:39:05.899Z,423.00
2023-05-02T04:40:05.954Z,424.00
2023-05-02T04:41:09.141Z,423.00
2023-05-02T04:42:05.996Z,424.00
2023-05-02T04:43:06.116Z,426.00
2023-05-02T04:44:05.958Z,425.00
2023-05-02T04:45:06.010Z,424.00
2023-05-02T04:46:05.994Z,424.00
2023-05-02T04:47:05.970Z,423.00
2023-05-02T04:48:06.034Z,423.00
2023-05-02T04:49:05.965Z,422.00
2023-05-02T04:50:05.924Z,421.00
2023-05-02T04:51:05.959Z,425.00
2023-05-02T04:52:05.926Z,427.00
2023-05-02T04:53:05.946Z,425.00
2023-05-02T04:54:05.916Z,424.00
2023-05-02T04:55:05.912Z,425.00
2023-05-02T04:56:05.934Z,424.00
2023-05-02T04:57:05.920Z,423.00
2023-05-02T04:58:05.919Z,421.00
2023-05-02T04:59:05.899Z,422.00
2023-05-02T05:00:05.890Z,422.00
2023-05-02T05:01:05.874Z,421.00
2023-05-02T05:02:05.962Z,420.00
2023-05-02T05:03:05.963Z,421.00
2023-05-02T05:04:05.931Z,422.00
2023-05-02T05:05:05.910Z,422.00
2023-05-02T05:06:05.904Z,422.00
2023-05-02T05:07:05.827Z,426.00
2023-05-02T05:08:05.865Z,429.00
2023-05-02T05:09:05.829Z,431.00
2023-05-02T05:10:05.824Z,432.00
2023-05-02T05:11:05.797Z,432.00
2023-05-02T05:12:05.835Z,430.00
2023-05-02T05:13:05.806Z,430.00
2023-05-02T05:14:05.800Z,429.00
2023-05-02T05:15:05.792Z,431.00
2023-05-02T05:16:05.823Z,432.00
2023-05-02T05:17:05.877Z,433.00
2023-05-02T05:18:05.881Z,433.00
2023-05-02T05:19:05.750Z,432.00
2023-05-02T05:20:06.347Z,432.00
2023-05-02T05:21:05.764Z,434.00
2023-05-02T05:22:05.719Z,432.00
2023-05-02T05:23:05.733Z,435.00
2023-05-02T05:24:05.774Z,434.00
2023-05-02T05:25:05.793Z,437.00
2023-05-02T05:26:05.790Z,437.00
2023-05-02T05:27:05.839Z,435.00
2023-05-02T05:28:05.836Z,435.00
2023-05-02T05:29:05.872Z,436.00
2023-05-02T05:30:05.934Z,436.00
2023-05-02T05:31:05.985Z,434.00
2023-05-02T05:32:06.118Z,434.00
2023-05-02T05:33:06.009Z,435.00
2023-05-02T05:34:06.030Z,435.00
2023-05-02T05:35:06.011Z,438.00
2023-05-02T05:36:05.991Z,440.00
2023-05-02T05:37:06.052Z,442.00
2023-05-02T05:38:06.015Z,442.00
2023-05-02T05:39:06.048Z,441.00
2023-05-02T05:40:06.078Z,441.00
2023-05-02T05:41:06.066Z,441.00
2023-05-02T05:42:06.123Z,443.00
2023-05-02T05:43:06.155Z,444.00
2023-05-02T05:44:06.165Z,444.00
2023-05-02T05:45:06.189Z,450.00
2023-05-02T05:46:06.259Z,472.00
2023-05-02T05:47:06.370Z,500.00
2023-05-02T05:48:06.313Z,510.00
2023-05-02T05:49:06.295Z,524.00
2023-05-02T05:50:06.320Z,539.00
2023-05-02T05:51:06.358Z,556.00
2023-05-02T05:52:06.382Z,564.00
2023-05-02T05:53:06.449Z,570.00
2023-05-02T05:54:06.455Z,578.00
2023-05-02T05:55:06.465Z,574.00
2023-05-02T05:56:06.489Z,570.00
2023-05-02T05:57:06.480Z,585.00
2023-05-02T05:58:06.508Z,579.00
2023-05-02T05:59:06.553Z,639.00
2023-05-02T06:00:06.566Z,641.00
2023-05-02T06:01:06.559Z,641.00
2023-05-02T06:02:06.608Z,647.00
2023-05-02T06:03:08.145Z,695.00
2023-05-02T06:04:06.715Z,693.00
2023-05-02T06:05:06.664Z,711.00
2023-05-02T06:06:06.646Z,722.00
2023-05-02T06:07:06.557Z,730.00
2023-05-02T06:08:06.556Z,845.00
2023-05-02T06:09:06.530Z,900.00
2023-05-02T06:10:06.518Z,941.00
2023-05-02T06:11:06.524Z,1004.00
2023-05-02T06:12:06.531Z,1015.00
2023-05-02T06:13:06.518Z,1039.00
2023-05-02T06:14:06.486Z,1057.00
2023-05-02T06:15:06.480Z,1185.00
2023-05-02T06:16:06.527Z,1191.00
2023-05-02T06:17:06.482Z,1193.00
2023-05-02T06:18:06.498Z,1201.00
2023-05-02T06:19:06.437Z,1222.00
2023-05-02T06:20:06.480Z,1265.00
2023-05-02T06:21:06.493Z,1311.00
2023-05-02T06:22:06.429Z,1327.00
2023-05-02T06:23:06.602Z,1345.00
2023-05-02T06:24:06.962Z,1363.00
2023-05-02T06:25:06.406Z,1377.00
2023-05-02T06:26:06.424Z,1398.00
2023-05-02T06:27:06.403Z,1441.00
2023-05-02T06:28:06.421Z,1518.00
2023-05-02T06:29:06.382Z,1527.00
2023-05-02T06:30:06.388Z,1547.00
2023-05-02T06:31:06.500Z,1633.00
2023-05-02T06:32:06.580Z,1631.00
2023-05-02T06:33:06.491Z,1644.00
2023-05-02T06:34:06.374Z,1660.00
2023-05-02T06:35:06.333Z,1670.00
2023-05-02T06:36:06.359Z,1682.00
2023-05-02T06:37:06.339Z,1702.00
2023-05-02T06:38:06.370Z,1766.00
2023-05-02T06:39:06.351Z,1781.00
2023-05-02T06:40:06.331Z,1799.00
2023-05-02T06:41:06.322Z,1821.00
2023-05-02T06:42:06.340Z,1857.00
2023-05-02T06:43:06.295Z,1883.00
2023-05-02T06:44:06.289Z,1899.00
2023-05-02T06:45:06.308Z,1917.00
2023-05-02T06:46:06.298Z,1942.00
2023-05-02T06:47:06.332Z,1961.00
2023-05-02T06:48:06.306Z,1995.00
2023-05-02T06:49:06.274Z,2048.00
2023-05-02T06:50:06.239Z,2045.00
2023-05-02T06:51:06.257Z,2060.00
2023-05-02T06:52:06.272Z,2078.00
2023-05-02T06:53:06.220Z,2131.00
2023-05-02T06:54:06.201Z,2148.00
2023-05-02T06:55:06.232Z,2160.00
2023-05-02T06:56:06.190Z,2162.00
2023-05-02T06:57:06.232Z,2037.00
2023-05-02T06:58:06.187Z,2037.00
2023-05-02T06:59:06.187Z,2026.00
2023-05-02T07:00:06.230Z,1959.00
2023-05-02T07:01:06.216Z,1968.00
2023-05-02T07:02:06.139Z,1975.00
2023-05-02T07:03:06.214Z,1982.00
2023-05-02T07:04:06.198Z,1995.00
2023-05-02T07:05:06.183Z,2004.00
2023-05-02T07:06:06.143Z,2015.00
2023-05-02T07:07:06.116Z,2023.00
2023-05-02T07:08:06.105Z,2035.00
2023-05-02T07:09:06.100Z,2044.00
2023-05-02T07:10:06.132Z,2050.00
2023-05-02T07:11:06.168Z,2054.00
2023-05-02T07:12:07.038Z,2055.00
2023-05-02T07:13:06.825Z,2063.00
2023-05-02T07:14:06.246Z,2068.00
2023-05-02T07:15:06.258Z,2076.00
2023-05-02T07:16:06.347Z,2078.00
2023-05-02T07:17:06.424Z,2078.00
2023-05-02T07:18:06.436Z,2085.00
2023-05-02T07:19:06.381Z,2088.00
2023-05-02T07:20:06.431Z,2093.00
2023-05-02T07:21:06.452Z,2098.00
2023-05-02T07:22:06.511Z,2108.00
2023-05-02T07:23:06.557Z,2113.00
2023-05-02T07:24:06.595Z,2121.00
2023-05-02T07:25:06.615Z,2124.00
2023-05-02T07:26:06.658Z,2125.00
2023-05-02T07:27:06.670Z,2128.00
2023-05-02T07:28:06.696Z,2132.00
2023-05-02T07:29:06.716Z,2138.00
2023-05-02T07:30:06.783Z,2149.00
2023-05-02T07:31:06.812Z,2154.00
2023-05-02T07:32:06.864Z,2159.00
2023-05-02T07:33:06.849Z,2165.00
2023-05-02T07:34:06.886Z,2173.00
2023-05-02T07:35:06.911Z,2176.00
2023-05-02T07:36:06.904Z,2179.00
2023-05-02T07:37:06.950Z,2180.00
2023-05-02T07:38:06.965Z,2188.00
2023-05-02T07:39:06.955Z,2189.00
2023-05-02T07:40:07.013Z,2194.00
2023-05-02T07:41:07.044Z,2196.00
2023-05-02T07:42:07.047Z,2198.00
2023-05-02T07:43:07.940Z,2210.00
2023-05-02T07:44:07.057Z,2215.00
2023-05-02T07:45:07.111Z,2212.00
2023-05-02T07:46:07.211Z,2224.00
2023-05-02T07:47:07.117Z,2226.00
2023-05-02T07:48:07.219Z,2223.00
2023-05-02T07:49:07.204Z,1935.00
2023-05-02T07:50:07.620Z,1875.00
2023-05-02T07:51:07.234Z,1431.00
2023-05-02T07:52:07.323Z,1503.00
2023-05-02T07:53:07.331Z,1644.00
2023-05-02T07:54:07.395Z,1406.00
2023-05-02T07:55:07.467Z,978.00
2023-05-02T07:56:07.461Z,673.00
2023-05-02T07:57:07.516Z,598.00
2023-05-02T07:58:07.546Z,577.00
2023-05-02T07:59:07.541Z,551.00
2023-05-02T08:00:07.598Z,525.00
2023-05-02T08:01:07.633Z,516.00
2023-05-02T08:02:07.696Z,522.00
2023-05-02T08:03:07.996Z,545.00
2023-05-02T08:04:08.030Z,577.00
2023-05-02T08:05:07.975Z,612.00
2023-05-02T08:06:07.817Z,624.00
2023-05-02T08:07:07.839Z,675.00
2023-05-02T08:08:07.894Z,699.00
2023-05-02T08:09:07.918Z,740.00
2023-05-02T08:10:07.923Z,758.00
2023-05-02T08:11:07.940Z,778.00
2023-05-02T08:12:07.985Z,791.00
2023-05-02T08:13:08.399Z,814.00
2023-05-02T08:14:08.002Z,835.00
2023-05-02T08:15:08.037Z,864.00
2023-05-02T08:16:08.102Z,888.00
2023-05-02T08:17:08.072Z,910.00
2023-05-02T08:18:08.147Z,921.00
2023-05-02T08:19:08.160Z,937.00
2023-05-02T08:20:08.206Z,952.00
2023-05-02T08:21:08.249Z,966.00
2023-05-02T08:22:08.314Z,982.00
2023-05-02T08:23:08.352Z,994.00
2023-05-02T08:24:08.396Z,1010.00
2023-05-02T08:25:08.455Z,1021.00
2023-05-02T08:26:08.530Z,1035.00
2023-05-02T08:27:08.564Z,1048.00
2023-05-02T08:28:08.617Z,1064.00
2023-05-02T08:29:08.629Z,1076.00
2023-05-02T08:30:09.123Z,1093.00
2023-05-02T08:31:08.779Z,1116.00
2023-05-02T08:32:08.803Z,1132.00
2023-05-02T08:33:08.954Z,1148.00
2023-05-02T08:34:08.834Z,1163.00
2023-05-02T08:35:08.861Z,1179.00
2023-05-02T08:36:08.917Z,1198.00
2023-05-02T08:37:08.909Z,1211.00
2023-05-02T08:38:08.971Z,1223.00
2023-05-02T08:39:08.965Z,1244.00
2023-05-02T08:40:08.976Z,1269.00
2023-05-02T08:41:09.018Z,1286.00
2023-05-02T08:42:09.033Z,1156.00
2023-05-02T08:43:09.409Z,1064.00
2023-05-02T08:44:09.135Z,1097.00
2023-05-02T08:45:09.188Z,1094.00
2023-05-02T08:46:09.232Z,982.00
2023-05-02T08:47:09.339Z,1032.00
2023-05-02T08:48:09.425Z,990.00
2023-05-02T08:49:09.395Z,970.00
2023-05-02T08:50:09.477Z,816.00
2023-05-02T08:51:09.438Z,921.00
2023-05-02T08:52:09.483Z,910.00
2023-05-02T08:53:09.486Z,911.00
2023-05-02T08:54:09.554Z,929.00
2023-05-02T08:55:09.552Z,900.00
2023-05-02T08:56:09.543Z,938.00
2023-05-02T08:57:09.562Z,955.00
2023-05-02T08:58:09.564Z,920.00
2023-05-02T08:59:09.613Z,1006.00
2023-05-02T09:00:09.614Z,1018.00
2023-05-02T09:01:09.652Z,1061.00
2023-05-02T09:02:09.622Z,1136.00
2023-05-02T09:03:09.648Z,1229.00
2023-05-02T09:04:09.728Z,1260.00
2023-05-02T09:05:09.712Z,1279.00
2023-05-02T09:06:09.846Z,1306.00
2023-05-02T09:07:10.909Z,1330.00
2023-05-02T09:08:09.869Z,1349.00
2023-05-02T09:09:09.911Z,1416.00
2023-05-02T09:10:09.966Z,1446.00
2023-05-02T09:11:09.947Z,1463.00
2023-05-02T09:12:10.260Z,1480.00
2023-05-02T09:13:10.039Z,1498.00
2023-05-02T09:14:10.017Z,1545.00
2023-05-02T09:15:10.036Z,1574.00
2023-05-02T09:16:10.112Z,1583.00
2023-05-02T09:17:10.202Z,1599.00
2023-05-02T09:18:10.085Z,1620.00
2023-05-02T09:19:10.111Z,1648.00
2023-05-02T09:20:10.087Z,1690.00
2023-05-02T09:21:10.130Z,1783.00
2023-05-02T09:22:10.141Z,1772.00
2023-05-02T09:23:10.155Z,1780.00
2023-05-02T09:24:10.150Z,1794.00
2023-05-02T09:25:10.182Z,1820.00
2023-05-02T09:26:10.206Z,1844.00
2023-05-02T09:27:10.216Z,1859.00
2023-05-02T09:28:10.245Z,1878.00
2023-05-02T09:29:10.257Z,1898.00
2023-05-02T09:30:10.265Z,1915.00
2023-05-02T09:31:10.290Z,1938.00
2023-05-02T09:32:10.402Z,1956.00
2023-05-02T09:33:10.438Z,2018.00
2023-05-02T09:34:10.343Z,2039.00
2023-05-02T09:35:10.358Z,2049.00
2023-05-02T09:36:10.425Z,2079.00
2023-05-02T09:37:10.442Z,2097.00
2023-05-02T09:38:11.092Z,2113.00
2023-05-02T09:39:10.492Z,2131.00
2023-05-02T09:40:10.502Z,2147.00
2023-05-02T09:41:10.540Z,2250.00
2023-05-02T09:42:10.575Z,2273.00
2023-05-02T09:43:10.636Z,2288.00
2023-05-02T09:44:10.683Z,2293.00
2023-05-02T09:45:10.748Z,2304.00
2023-05-02T09:46:10.795Z,2344.00
2023-05-02T09:47:10.841Z,2353.00
2023-05-02T09:48:10.968Z,2353.00
2023-05-02T09:49:10.893Z,2074.00
2023-05-02T09:50:10.910Z,2051.00
2023-05-02T09:51:10.928Z,1802.00
2023-05-02T09:52:10.994Z,1675.00
2023-05-02T09:53:11.430Z,1724.00
2023-05-02T09:54:10.983Z,1674.00
2023-05-02T09:55:11.011Z,1532.00
2023-05-02T09:56:11.060Z,1375.00
2023-05-02T09:57:11.444Z,1508.00
2023-05-02T09:58:11.396Z,1562.00
2023-05-02T09:59:11.077Z,1607.00
2023-05-02T10:00:11.236Z,1654.00
2023-05-02T10:01:11.187Z,1685.00
2023-05-02T10:02:11.305Z,1735.00
2023-05-02T10:03:11.511Z,1801.00
2023-05-02T10:04:11.223Z,1825.00
2023-05-02T10:05:11.197Z,1849.00
2023-05-02T10:06:11.281Z,1869.00
2023-05-02T10:07:11.240Z,1912.00
2023-05-02T10:08:11.404Z,1945.00
2023-05-02T10:09:11.272Z,1981.00
2023-05-02T10:10:11.285Z,2023.00
2023-05-02T10:11:11.333Z,2041.00
2023-05-02T10:12:11.411Z,2054.00
2023-05-02T10:13:11.438Z,2082.00
2023-05-02T10:14:11.457Z,2122.00
2023-05-02T10:15:11.507Z,2147.00
2023-05-02T10:16:11.608Z,2179.00
2023-05-02T10:17:11.618Z,2287.00
2023-05-02T10:18:11.686Z,2280.00
2023-05-02T10:19:11.725Z,2275.00
2023-05-02T10:20:11.746Z,2291.00
2023-05-02T10:21:11.829Z,2305.00
2023-05-02T10:22:11.825Z,2361.00
2023-05-02T10:23:11.856Z,2375.00
2023-05-02T10:24:11.960Z,2387.00
2023-05-02T10:25:11.979Z,2401.00
2023-05-02T10:26:12.042Z,2419.00
2023-05-02T10:27:12.084Z,2436.00
2023-05-02T10:28:12.140Z,2452.00
2023-05-02T10:29:12.187Z,2465.00
2023-05-02T10:30:12.227Z,2479.00
2023-05-02T10:31:12.279Z,2506.00
2023-05-02T10:32:12.300Z,2531.00
2023-05-02T10:33:12.333Z,2551.00
2023-05-02T10:34:12.355Z,2573.00
2023-05-02T10:35:12.406Z,2593.00
2023-05-02T10:36:12.461Z,2630.00
2023-05-02T10:37:12.494Z,2652.00
2023-05-02T10:38:12.486Z,2665.00
2023-05-02T10:39:12.503Z,2689.00
2023-05-02T10:40:12.636Z,2563.00
2023-05-02T10:41:12.614Z,2678.00
2023-05-02T10:42:12.667Z,2329.00
2023-05-02T10:43:12.737Z,2397.00
2023-05-02T10:44:12.761Z,2131.00
2023-05-02T10:45:12.784Z,2212.00
2023-05-02T10:46:12.914Z,2274.00
2023-05-02T10:47:12.894Z,1811.00
2023-05-02T10:48:13.020Z,1719.00
2023-05-02T10:49:12.916Z,1295.00
2023-05-02T10:50:12.935Z,1352.00
2023-05-02T10:51:12.966Z,1484.00
2023-05-02T10:52:12.976Z,1585.00
2023-05-02T10:53:13.020Z,1579.00
2023-05-02T10:54:12.987Z,1651.00
2023-05-02T10:55:14.027Z,1674.00
2023-05-02T10:56:13.056Z,1681.00
2023-05-02T10:57:12.990Z,1729.00
2023-05-02T10:58:13.470Z,1749.00
2023-05-02T10:59:13.008Z,1758.00
2023-05-02T11:00:12.961Z,1818.00
2023-05-02T11:01:13.004Z,1831.00
2023-05-02T11:02:13.022Z,1825.00
2023-05-02T11:03:13.469Z,1816.00
2023-05-02T11:04:12.951Z,1819.00
2023-05-02T11:05:12.956Z,1830.00
2023-05-02T11:06:12.949Z,1850.00
2023-05-02T11:07:12.902Z,1852.00
2023-05-02T11:08:12.958Z,1861.00
2023-05-02T11:09:12.983Z,1865.00
2023-05-02T11:10:12.993Z,1862.00
2023-05-02T11:11:13.043Z,1860.00
2023-05-02T11:12:13.120Z,1861.00
2023-05-02T11:13:13.144Z,1854.00
2023-05-02T11:14:14.351Z,1851.00
2023-05-02T11:15:13.186Z,1849.00
2023-05-02T11:16:13.232Z,1851.00
2023-05-02T11:17:13.214Z,1860.00
2023-05-02T11:18:13.591Z,1871.00
2023-05-02T11:19:13.258Z,1864.00
2023-05-02T11:20:13.330Z,1865.00
2023-05-02T11:21:13.358Z,1869.00
2023-05-02T11:22:13.932Z,1872.00
2023-05-02T11:23:13.434Z,1894.00
2023-05-02T11:24:13.390Z,1920.00
2023-05-02T11:25:13.381Z,1944.00
2023-05-02T11:26:13.414Z,1972.00
2023-05-02T11:27:13.419Z,1984.00
2023-05-02T11:28:13.471Z,1986.00
2023-05-02T11:29:13.463Z,2003.00
2023-05-02T11:30:13.551Z,2023.00
2023-05-02T11:31:13.485Z,2044.00
2023-05-02T11:32:13.572Z,2115.00
2023-05-02T11:33:13.599Z,2130.00
2023-05-02T11:34:13.587Z,2133.00
2023-05-02T11:35:13.557Z,2153.00
2023-05-02T11:36:13.589Z,2083.00
2023-05-02T11:37:13.632Z,1685.00
2023-05-02T11:38:13.954Z,1240.00
2023-05-02T11:39:13.819Z,1120.00
2023-05-02T11:40:13.827Z,864.00
2023-05-02T11:41:13.897Z,786.00
2023-05-02T11:42:13.808Z,726.00
2023-05-02T11:43:13.861Z,637.00
2023-05-02T11:44:13.858Z,591.00
2023-05-02T11:45:13.875Z,584.00
2023-05-02T11:46:13.975Z,575.00
2023-05-02T11:47:13.999Z,560.00
2023-05-02T11:48:14.036Z,503.00
2023-05-02T11:49:15.025Z,619.00
2023-05-02T11:50:14.118Z,603.00
2023-05-02T11:51:14.209Z,586.00
2023-05-02T11:52:14.213Z,593.00
2023-05-02T11:53:14.254Z,603.00
2023-05-02T11:54:14.302Z,627.00
2023-05-02T11:55:14.372Z,691.00
2023-05-02T11:56:14.430Z,709.00
2023-05-02T11:57:14.472Z,645.00
2023-05-02T11:58:14.496Z,643.00
2023-05-02T11:59:14.572Z,628.00
2023-05-02T12:00:14.621Z,623.00
2023-05-02T12:01:14.943Z,641.00
2023-05-02T12:02:14.733Z,740.00
2023-05-02T12:03:14.889Z,697.00
2023-05-02T12:04:14.788Z,698.00
2023-05-02T12:05:14.890Z,712.00
2023-05-02T12:06:15.271Z,716.00
2023-05-02T12:07:14.858Z,720.00
2023-05-02T12:08:14.834Z,710.00
2023-05-02T12:09:14.902Z,695.00
2023-05-02T12:10:14.938Z,656.00
2023-05-02T12:11:14.928Z,643.00
2023-05-02T12:12:15.016Z,628.00
2023-05-02T12:13:15.037Z,628.00
2023-05-02T12:14:15.089Z,614.00
2023-05-02T12:15:15.144Z,612.00
2023-05-02T12:16:15.370Z,601.00
2023-05-02T12:17:15.250Z,602.00
2023-05-02T12:18:15.315Z,611.00
2023-05-02T12:19:15.413Z,620.00
2023-05-02T12:20:15.418Z,618.00